ADDS METAR Data INFO
IDs: Format: Raw Decoded Include TAF

Data at: 0927 UTC 25 Jun 2018

KATP 250915Z AUTO 13010KT 10SM CLR 28/23 A3004 RMK A01
KATP 250855Z AUTO 13009KT 10SM CLR 28/23 A3003 RMK A01
KATP 250835Z AUTO 13011KT 10SM CLR 28/23 A3003 RMK A01
KATP 250815Z AUTO 13011KT 10SM CLR 28/24 A3003 RMK A01
KATP 250755Z AUTO 14012KT 10SM CLR 28/24 A3003 RMK A01
KATP 250735Z AUTO 13010KT 10SM CLR 28/23 A3003 RMK A01
KATP 250715Z AUTO 14012KT 10SM CLR 28/23 A3003 RMK A01
KATP 250650Z AUTO 13012KT 10SM CLR 28/23 A3005 RMK A01
KATP 250635Z AUTO 13013KT 10SM CLR 28/23 A3005 RMK A01
KATP 250615Z AUTO 13011KT 10SM CLR 28/23 A3005 RMK A01
KATP 250555Z AUTO 13011KT 10SM CLR 28/23 A3005 RMK A01
KATP 250535Z AUTO 13013KT 10SM CLR 28/23 A3004 RMK A01
KATP 250515Z AUTO 13010KT 10SM CLR 28/23 A3005 RMK A01
KATP 250455Z AUTO 13013KT 10SM CLR 28/23 A3005 RMK A01
KATP 250435Z AUTO 13013KT 10SM 28/23 A3005 RMK A01
KATP 250415Z AUTO 13013KT 10SM 28/23 A3004 RMK A01
KATP 250355Z AUTO 13013KT 10SM CLR 28/23 A3004 RMK A01
KATP 250335Z AUTO 13011KT 10SM CLR 28/23 A3004 RMK A01
KATP 250315Z AUTO 13013KT 10SM CLR 28/23 A3004 RMK A01
KATP 250255Z AUTO 14010KT 10SM 28/23 A3004 RMK A01
KATP 250235Z AUTO 14012KT 10SM CLR 28/24 A3003 RMK A01
KATP 250215Z AUTO 14012KT 10SM 28/24 A3003 RMK A01
KATP 250155Z AUTO 14012KT 10SM CLR 28/24 A3003 RMK A01
KATP 250135Z AUTO 14008KT 10SM CLR 28/24 A3003 RMK A01
KATP 250115Z AUTO 13011KT 10SM CLR 28/24 A3002 RMK A01
KATP 250055Z AUTO 13011KT 10SM CLR 28/24 A3003 RMK A01
KATP 250035Z AUTO 14009KT 10SM CLR 29/24 A3002 RMK A01
KATP 250015Z AUTO 14008KT 10SM CLR 28/24 A3002 RMK A01
KATP 242355Z AUTO 13010KT 10SM CLR 29/24 A3002 RMK A01
KATP 242335Z AUTO 13009KT 10SM CLR 29/24 A3002 RMK A01
KATP 242315Z AUTO 12007KT 10SM CLR 29/24 A3002 RMK A01
KATP 242255Z AUTO 13007KT 10SM FEW022 29/24 A3002 RMK A01
KATP 242235Z AUTO 7.20000007KT 10SM FEW022 FEW027 29/24 A3002 RMK A01
KATP 242215Z AUTO 14007KT 10SM SCT021 SCT027 29/24 A3003 RMK A01
KATP 242155Z AUTO 15007KT 10SM SCT022 SCT027 29/24 A3003 RMK A01
KATP 242135Z AUTO 14008KT 10SM FEW025 29/24 A3003 RMK A01
KATP 242115Z AUTO 15007KT 10SM CLR 29/24 A3003 RMK A01
KATP 242055Z AUTO 15006KT 10SM CLR 29/24 A3003 RMK A01
KATP 242035Z AUTO 14008KT 10SM CLR 29/24 A3003 RMK A01
KATP 242015Z AUTO 16006KT 10SM CLR 29/24 A3003 RMK A01
KATP 241955Z AUTO 16008KT 10SM CLR 29/24 A3003 RMK A01
KATP 241935Z AUTO 15009KT 10SM CLR 29/24 A3003 RMK A01
KATP 241915Z AUTO 16010KT 10SM CLR 29/25 A3003 RMK A01
KATP 241855Z AUTO 16010KT 10SM CLR 29/25 A3004 RMK A01
KATP 241835Z AUTO 18012KT 10SM FEW018 FEW029 29/25 A3004 RMK A01
KATP 241815Z AUTO 16008KT 10SM FEW019 29/25 A3005 RMK A01
KATP 241755Z AUTO 18011KT 10SM CLR 29/25 A3005 RMK A01
KATP 241735Z AUTO 17010KT 10SM SCT023 SCT029 29/25 A3005 RMK A01
KATP 241715Z AUTO 16009KT 10SM SCT022 SCT029 29/24 A3005 RMK A01
KATP 241655Z AUTO 17010KT 10SM FEW021 29/24 A3004 RMK A01
KATP 241635Z AUTO 18011KT 10SM FEW020 29/24 A3004 RMK A01
KATP 241615Z AUTO 18011KT 10SM CLR 29/24 A3003 RMK A01
KATP 241555Z AUTO 17010G17KT 10SM CLR 29/24 A3004 RMK A01
KATP 241535Z AUTO 18010G16KT 110V220 10SM CLR 29/24 A3003 RMK A01
KATP 241515Z AUTO 18010KT 10SM FEW024 29/24 A3003 RMK A01
KATP 241455Z AUTO VRB06G15KT 150V250 10SM SCT024 SCT032 29/24 A3003 RMK A01
KATP 241435Z AUTO 18011KT 10SM SCT023 SCT032 29/24 A3003 RMK A01
KATP 241415Z AUTO 18008G14KT 140V230 10SM SCT021 BKN027 29/24 A3002 RMK A01
KATP 241355Z AUTO 18013KT 10SM FEW021 FEW026 28/24 A3003 RMK A01
KATP 241335Z AUTO 18010KT 150V230 10SM BKN020 BKN026 28/24 A3002 RMK A01
KATP 241315Z AUTO 18013KT 10SM SCT019 28/24 A3002 RMK A01
KATP 241255Z AUTO 18013KT 10SM CLR 28/24 A3001 RMK A01
KATP 241235Z AUTO 18011G16KT 150V210 10SM CLR 28/24 A3001 RMK A01
KATP 241215Z AUTO VRB08G16KT 10SM CLR 28/24 A3001 RMK A01
KATP 241155Z AUTO 18012KT 160V220 10SM CLR 28/24 A3000 RMK A01
KATP 241135Z AUTO 17013KT 10SM CLR 28/24 A3000 RMK A01
KATP 241115Z AUTO 18011KT 160V230 10SM CLR 28/24 A3001 RMK A01
KATP 241055Z AUTO 20007G16KT 160V300 10SM 28/24 A3000 RMK A01
KATP 241035Z AUTO 19008G14KT 130V240 10SM SCT023 SCT029 28/24 A3000 RMK A01
KATP 241015Z AUTO 18009G18KT 130V240 10SM FEW021 SCT026 28/24 A3000 RMK A01
KATP 240955Z AUTO 18013KT 10SM SCT020 28/24 A2999 RMK A01
KATP 240935Z AUTO 17011G17KT 10SM BKN020 28/24 A2999 RMK A01
KATP 240915Z AUTO 18011G19KT 10SM 28/24 A2998 RMK A01
KATP 240855Z AUTO 18013G20KT 10SM 28/25 A2997 RMK A01
KATP 240835Z AUTO 18013G22KT 10SM 28/24 A2996 RMK A01
KATP 240815Z AUTO 18014G21KT 140V220 10SM FEW018 28/25 A2995 RMK A01
KATP 240755Z AUTO 18011G22KT 140V210 10SM 28/24 A2996 RMK A01
KATP 240735Z AUTO 17016G24KT 10SM 28/25 A2996 RMK A01
KATP 240715Z AUTO 17015G21KT 10SM 28/25 A2997 RMK A01
KATP 240655Z AUTO 17016KT 10SM FEW018 28/25 A2997 RMK A01
KATP 240635Z AUTO 17019KT 10SM FEW016 28/25 A2997 RMK A01
KATP 240615Z AUTO 16017G23KT 10SM CLR 28/25 A2997 RMK A01
KATP 240555Z AUTO 16013G21KT 10SM CLR 28/25 A2997 RMK A01
KATP 240535Z AUTO 16016G21KT 10SM FEW018 28/25 A2998 RMK A01
KATP 240515Z AUTO 15012KT 10SM SCT018 28/25 A2999 RMK A01
KATP 240455Z AUTO 15012KT 10SM FEW018 28/25 A3000 RMK A01
KATP 240435Z AUTO 15011G17KT 10SM FEW018 28/25 A3000 RMK A01
KATP 240415Z AUTO 15011G18KT 10SM 28/25 A3001 RMK A01
KATP 240355Z AUTO 16012KT 10SM 28/25 A3001 RMK A01
KATP 240335Z AUTO 16013KT 10SM FEW019 28/25 A3002 RMK A01
KATP 240315Z AUTO 15011KT 10SM SCT018 SCT023 28/25 A3002 RMK A01
KATP 240255Z AUTO 17012G18KT 10SM BKN020 28/25 A3000 RMK A01
KATP 240235Z AUTO 17012KT 10SM 29/25 A2999 RMK A01
KATP 240215Z AUTO 18013G18KT 10SM 29/25 A2998 RMK A01
KATP 240155Z AUTO 17014G19KT 10SM FEW017 FEW026 29/25 A2998 RMK A01
KATP 240135Z AUTO 18012G17KT 10SM 29/25 A2997 RMK A01
KATP 240115Z AUTO 17012KT 10SM SCT017 SCT027 BKN042 29/25 A2997 RMK A01
KATP 240055Z AUTO 18012KT 130V190 10SM SCT018 SCT040 29/25 A2996 RMK A01
KATP 240035Z AUTO 17010KT 10SM FEW017 FEW027 29/25 A2996 RMK A01
KATP 240015Z AUTO 17012KT 10SM FEW017 SCT026 SCT042 29/25 A2996 RMK A01
KATP 232355Z AUTO 17009KT 10SM FEW017 FEW025 SCT038 29/25 A2996 RMK A01
KATP 232335Z AUTO 17010KT 10SM FEW017 SCT022 BKN033 29/25 A2995 RMK A01
KATP 232315Z AUTO 16008KT 10SM SCT016 BKN022 29/25 A2995 RMK A01
KATP 232255Z AUTO 16007KT 10SM CLR 29/25 A2995 RMK A01
KATP 232235Z AUTO 18009KT 10SM CLR 29/25 A2995 RMK A01
KATP 232215Z AUTO 18008KT 150V250 10SM CLR 29/25 A2995 RMK A01
KATP 232155Z AUTO 18008KT 130V220 10SM CLR 29/25 A2995 RMK A01
KATP 232135Z AUTO 18010KT 10SM CLR 29/25 A2995 RMK A01